sensor_id;sensor_type;location;lat;lon;timestamp;P1;durP1;ratioP1;P2;durP2;ratioP2
31368;SDS011;18004;48.416;10.066;2023-04-23T00:01:04;2.10;;;1.60;;
31368;SDS011;18004;48.416;10.066;2023-04-23T00:03:32;1.70;;;1.55;;
31368;SDS011;18004;48.416;10.066;2023-04-23T00:06:06;3.28;;;1.70;;
31368;SDS011;18004;48.416;10.066;2023-04-23T00:08:34;3.20;;;1.67;;
31368;SDS011;18004;48.416;10.066;2023-04-23T00:11:03;3.08;;;1.60;;
31368;SDS011;18004;48.416;10.066;2023-04-23T00:13:30;2.17;;;1.73;;
31368;SDS011;18004;48.416;10.066;2023-04-23T00:15:56;2.60;;;1.80;;
31368;SDS011;18004;48.416;10.066;2023-04-23T00:18:22;2.50;;;1.90;;
31368;SDS011;18004;48.416;10.066;2023-04-23T00:20:48;2.17;;;1.83;;
31368;SDS011;18004;48.416;10.066;2023-04-23T00:23:14;3.03;;;1.52;;
31368;SDS011;18004;48.416;10.066;2023-04-23T00:25:40;4.03;;;1.98;;
31368;SDS011;18004;48.416;10.066;2023-04-23T00:28:05;1.90;;;1.70;;
31368;SDS011;18004;48.416;10.066;2023-04-23T00:30:31;2.90;;;1.67;;
31368;SDS011;18004;48.416;10.066;2023-04-23T00:32:58;4.10;;;1.90;;
31368;SDS011;18004;48.416;10.066;2023-04-23T00:35:23;1.98;;;1.67;;
31368;SDS011;18004;48.416;10.066;2023-04-23T00:37:49;3.60;;;1.60;;
31368;SDS011;18004;48.416;10.066;2023-04-23T00:40:15;2.75;;;1.75;;
31368;SDS011;18004;48.416;10.066;2023-04-23T00:42:40;4.70;;;2.08;;
31368;SDS011;18004;48.416;10.066;2023-04-23T00:45:06;3.88;;;2.22;;
31368;SDS011;18004;48.416;10.066;2023-04-23T00:47:33;5.55;;;1.63;;
31368;SDS011;18004;48.416;10.066;2023-04-23T00:49:59;4.03;;;2.00;;
31368;SDS011;18004;48.416;10.066;2023-04-23T00:52:25;5.43;;;2.20;;
31368;SDS011;18004;48.416;10.066;2023-04-23T00:54:53;2.33;;;2.00;;
31368;SDS011;18004;48.416;10.066;2023-04-23T00:57:19;6.25;;;2.25;;
31368;SDS011;18004;48.416;10.066;2023-04-23T00:59:48;4.82;;;2.13;;
31368;SDS011;18004;48.416;10.066;2023-04-23T01:02:15;2.83;;;1.98;;
31368;SDS011;18004;48.416;10.066;2023-04-23T01:04:42;2.38;;;2.03;;
31368;SDS011;18004;48.416;10.066;2023-04-23T01:07:10;3.55;;;1.85;;
31368;SDS011;18004;48.416;10.066;2023-04-23T01:09:36;4.15;;;1.67;;
31368;SDS011;18004;48.416;10.066;2023-04-23T01:12:04;2.28;;;1.63;;
31368;SDS011;18004;48.416;10.066;2023-04-23T01:14:30;5.10;;;1.90;;
31368;SDS011;18004;48.416;10.066;2023-04-23T01:16:57;5.30;;;1.63;;
31368;SDS011;18004;48.416;10.066;2023-04-23T01:19:22;3.42;;;2.03;;
31368;SDS011;18004;48.416;10.066;2023-04-23T01:21:49;4.15;;;1.95;;
31368;SDS011;18004;48.416;10.066;2023-04-23T01:24:15;1.45;;;1.35;;
31368;SDS011;18004;48.416;10.066;2023-04-23T01:26:41;2.03;;;1.80;;
31368;SDS011;18004;48.416;10.066;2023-04-23T01:29:07;5.97;;;1.63;;
31368;SDS011;18004;48.416;10.066;2023-04-23T01:31:34;4.38;;;1.80;;
31368;SDS011;18004;48.416;10.066;2023-04-23T01:34:00;2.58;;;1.83;;
31368;SDS011;18004;48.416;10.066;2023-04-23T01:36:27;6.30;;;2.05;;
31368;SDS011;18004;48.416;10.066;2023-04-23T01:38:53;1.63;;;1.50;;
31368;SDS011;18004;48.416;10.066;2023-04-23T01:41:19;1.60;;;1.33;;
31368;SDS011;18004;48.416;10.066;2023-04-23T01:43:45;2.72;;;1.90;;
31368;SDS011;18004;48.416;10.066;2023-04-23T01:46:11;3.10;;;1.50;;
31368;SDS011;18004;48.416;10.066;2023-04-23T01:48:37;3.13;;;1.67;;
31368;SDS011;18004;48.416;10.066;2023-04-23T01:51:03;1.55;;;1.33;;
31368;SDS011;18004;48.416;10.066;2023-04-23T01:53:29;6.97;;;1.88;;
31368;SDS011;18004;48.416;10.066;2023-04-23T01:55:55;2.70;;;1.77;;
31368;SDS011;18004;48.416;10.066;2023-04-23T01:58:22;5.88;;;1.85;;
31368;SDS011;18004;48.416;10.066;2023-04-23T02:00:48;2.08;;;1.65;;
31368;SDS011;18004;48.416;10.066;2023-04-23T02:03:14;2.85;;;1.90;;
31368;SDS011;18004;48.416;10.066;2023-04-23T02:05:41;4.18;;;1.67;;
31368;SDS011;18004;48.416;10.066;2023-04-23T02:08:07;1.90;;;1.70;;
31368;SDS011;18004;48.416;10.066;2023-04-23T02:10:34;2.42;;;1.75;;
31368;SDS011;18004;48.416;10.066;2023-04-23T02:13:00;2.55;;;1.70;;
31368;SDS011;18004;48.416;10.066;2023-04-23T02:15:27;3.72;;;2.08;;
31368;SDS011;18004;48.416;10.066;2023-04-23T02:17:53;2.90;;;1.90;;
31368;SDS011;18004;48.416;10.066;2023-04-23T02:20:18;2.60;;;1.75;;
31368;SDS011;18004;48.416;10.066;2023-04-23T02:22:46;7.78;;;1.90;;
31368;SDS011;18004;48.416;10.066;2023-04-23T02:25:13;6.78;;;2.40;;
31368;SDS011;18004;48.416;10.066;2023-04-23T02:27:40;4.50;;;1.90;;
31368;SDS011;18004;48.416;10.066;2023-04-23T02:30:06;3.67;;;2.25;;
31368;SDS011;18004;48.416;10.066;2023-04-23T02:32:34;5.78;;;1.80;;
31368;SDS011;18004;48.416;10.066;2023-04-23T02:35:00;3.58;;;2.28;;
31368;SDS011;18004;48.416;10.066;2023-04-23T02:37:27;2.25;;;1.88;;
31368;SDS011;18004;48.416;10.066;2023-04-23T02:39:53;2.35;;;2.05;;
31368;SDS011;18004;48.416;10.066;2023-04-23T02:42:19;2.20;;;1.75;;
31368;SDS011;18004;48.416;10.066;2023-04-23T02:44:44;2.20;;;2.00;;
31368;SDS011;18004;48.416;10.066;2023-04-23T02:47:10;3.03;;;2.30;;
31368;SDS011;18004;48.416;10.066;2023-04-23T02:49:36;4.53;;;2.60;;
31368;SDS011;18004;48.416;10.066;2023-04-23T02:52:02;3.35;;;2.15;;
31368;SDS011;18004;48.416;10.066;2023-04-23T02:54:28;4.35;;;2.47;;
31368;SDS011;18004;48.416;10.066;2023-04-23T02:56:56;3.47;;;2.40;;
31368;SDS011;18004;48.416;10.066;2023-04-23T02:59:22;3.85;;;2.38;;
31368;SDS011;18004;48.416;10.066;2023-04-23T03:01:49;4.10;;;2.45;;
31368;SDS011;18004;48.416;10.066;2023-04-23T03:04:16;4.93;;;2.55;;
31368;SDS011;18004;48.416;10.066;2023-04-23T03:06:42;5.65;;;2.47;;
31368;SDS011;18004;48.416;10.066;2023-04-23T03:09:08;3.60;;;2.22;;
31368;SDS011;18004;48.416;10.066;2023-04-23T03:11:34;2.55;;;2.10;;
31368;SDS011;18004;48.416;10.066;2023-04-23T03:13:59;3.75;;;2.30;;
31368;SDS011;18004;48.416;10.066;2023-04-23T03:16:29;5.07;;;2.95;;
31368;SDS011;18004;48.416;10.066;2023-04-23T03:18:55;2.75;;;2.15;;
31368;SDS011;18004;48.416;10.066;2023-04-23T03:21:21;5.13;;;2.47;;
31368;SDS011;18004;48.416;10.066;2023-04-23T03:23:47;8.52;;;2.58;;
31368;SDS011;18004;48.416;10.066;2023-04-23T03:26:13;4.80;;;2.78;;
31368;SDS011;18004;48.416;10.066;2023-04-23T03:28:38;6.63;;;2.67;;
31368;SDS011;18004;48.416;10.066;2023-04-23T03:31:04;3.70;;;2.65;;
31368;SDS011;18004;48.416;10.066;2023-04-23T03:33:30;4.40;;;2.67;;
31368;SDS011;18004;48.416;10.066;2023-04-23T03:35:56;5.85;;;3.20;;
31368;SDS011;18004;48.416;10.066;2023-04-23T03:38:22;5.13;;;2.78;;
31368;SDS011;18004;48.416;10.066;2023-04-23T03:40:48;4.05;;;3.10;;
31368;SDS011;18004;48.416;10.066;2023-04-23T03:43:13;2.65;;;2.45;;
31368;SDS011;18004;48.416;10.066;2023-04-23T03:45:39;7.18;;;2.50;;
31368;SDS011;18004;48.416;10.066;2023-04-23T03:48:05;4.63;;;2.63;;
31368;SDS011;18004;48.416;10.066;2023-04-23T03:50:31;2.70;;;2.47;;
31368;SDS011;18004;48.416;10.066;2023-04-23T03:53:03;3.45;;;2.38;;
31368;SDS011;18004;48.416;10.066;2023-04-23T03:55:29;7.05;;;3.00;;
31368;SDS011;18004;48.416;10.066;2023-04-23T03:57:54;5.25;;;2.50;;
31368;SDS011;18004;48.416;10.066;2023-04-23T04:00:20;4.57;;;2.55;;
31368;SDS011;18004;48.416;10.066;2023-04-23T04:02:46;4.78;;;2.70;;
31368;SDS011;18004;48.416;10.066;2023-04-23T04:05:12;5.13;;;2.97;;
31368;SDS011;18004;48.416;10.066;2023-04-23T04:07:38;2.78;;;2.33;;
31368;SDS011;18004;48.416;10.066;2023-04-23T04:10:05;6.20;;;2.50;;
31368;SDS011;18004;48.416;10.066;2023-04-23T04:12:31;2.90;;;2.13;;
31368;SDS011;18004;48.416;10.066;2023-04-23T04:14:57;2.22;;;2.03;;
31368;SDS011;18004;48.416;10.066;2023-04-23T04:17:23;7.38;;;2.30;;
31368;SDS011;18004;48.416;10.066;2023-04-23T04:19:49;2.17;;;1.90;;
31368;SDS011;18004;48.416;10.066;2023-04-23T04:22:14;6.05;;;3.25;;
31368;SDS011;18004;48.416;10.066;2023-04-23T04:24:40;2.97;;;2.33;;
31368;SDS011;18004;48.416;10.066;2023-04-23T04:27:06;4.32;;;2.72;;
31368;SDS011;18004;48.416;10.066;2023-04-23T04:29:33;2.55;;;2.13;;
31368;SDS011;18004;48.416;10.066;2023-04-23T04:31:59;5.18;;;2.40;;
31368;SDS011;18004;48.416;10.066;2023-04-23T04:34:25;5.28;;;2.47;;
31368;SDS011;18004;48.416;10.066;2023-04-23T04:36:51;7.18;;;2.50;;
31368;SDS011;18004;48.416;10.066;2023-04-23T04:39:18;3.03;;;2.42;;
31368;SDS011;18004;48.416;10.066;2023-04-23T04:41:44;4.28;;;2.67;;
31368;SDS011;18004;48.416;10.066;2023-04-23T04:44:10;3.08;;;2.25;;
31368;SDS011;18004;48.416;10.066;2023-04-23T04:46:38;4.10;;;2.35;;
31368;SDS011;18004;48.416;10.066;2023-04-23T04:49:07;3.15;;;2.22;;
31368;SDS011;18004;48.416;10.066;2023-04-23T04:51:34;2.53;;;2.20;;
31368;SDS011;18004;48.416;10.066;2023-04-23T04:54:00;2.95;;;2.20;;
31368;SDS011;18004;48.416;10.066;2023-04-23T04:56:26;2.72;;;2.22;;
31368;SDS011;18004;48.416;10.066;2023-04-23T04:58:52;3.70;;;2.30;;
31368;SDS011;18004;48.416;10.066;2023-04-23T05:01:20;2.67;;;2.10;;
31368;SDS011;18004;48.416;10.066;2023-04-23T05:03:47;4.05;;;2.05;;
31368;SDS011;18004;48.416;10.066;2023-04-23T05:06:13;4.22;;;2.55;;
31368;SDS011;18004;48.416;10.066;2023-04-23T05:08:38;3.47;;;2.67;;
31368;SDS011;18004;48.416;10.066;2023-04-23T05:11:06;3.58;;;2.75;;
31368;SDS011;18004;48.416;10.066;2023-04-23T05:13:31;4.72;;;2.60;;
31368;SDS011;18004;48.416;10.066;2023-04-23T05:15:57;5.25;;;2.85;;
31368;SDS011;18004;48.416;10.066;2023-04-23T05:18:23;5.95;;;2.67;;
31368;SDS011;18004;48.416;10.066;2023-04-23T05:20:49;5.43;;;3.00;;
31368;SDS011;18004;48.416;10.066;2023-04-23T05:23:15;3.95;;;2.70;;
31368;SDS011;18004;48.416;10.066;2023-04-23T05:25:40;2.88;;;2.40;;
31368;SDS011;18004;48.416;10.066;2023-04-23T05:28:06;3.47;;;2.35;;
31368;SDS011;18004;48.416;10.066;2023-04-23T05:30:32;2.97;;;2.08;;
31368;SDS011;18004;48.416;10.066;2023-04-23T05:32:58;2.53;;;1.92;;
31368;SDS011;18004;48.416;10.066;2023-04-23T05:35:24;4.28;;;2.25;;
31368;SDS011;18004;48.416;10.066;2023-04-23T05:37:50;2.65;;;2.45;;
31368;SDS011;18004;48.416;10.066;2023-04-23T05:40:16;2.42;;;2.20;;
31368;SDS011;18004;48.416;10.066;2023-04-23T05:42:44;3.33;;;2.10;;
31368;SDS011;18004;48.416;10.066;2023-04-23T05:45:10;3.28;;;2.05;;
31368;SDS011;18004;48.416;10.066;2023-04-23T05:47:36;2.22;;;2.03;;
31368;SDS011;18004;48.416;10.066;2023-04-23T05:50:05;4.25;;;2.30;;
31368;SDS011;18004;48.416;10.066;2023-04-23T05:52:31;3.70;;;2.33;;
31368;SDS011;18004;48.416;10.066;2023-04-23T05:54:59;2.80;;;2.03;;
31368;SDS011;18004;48.416;10.066;2023-04-23T05:57:25;5.78;;;2.33;;
31368;SDS011;18004;48.416;10.066;2023-04-23T05:59:51;3.97;;;2.30;;
31368;SDS011;18004;48.416;10.066;2023-04-23T06:02:17;4.95;;;2.53;;
31368;SDS011;18004;48.416;10.066;2023-04-23T06:04:42;4.78;;;2.70;;
31368;SDS011;18004;48.416;10.066;2023-04-23T06:07:08;2.97;;;2.25;;
31368;SDS011;18004;48.416;10.066;2023-04-23T06:09:34;4.45;;;2.67;;
31368;SDS011;18004;48.416;10.066;2023-04-23T06:12:00;2.53;;;2.10;;
31368;SDS011;18004;48.416;10.066;2023-04-23T06:14:27;3.58;;;2.60;;
31368;SDS011;18004;48.416;10.066;2023-04-23T06:16:53;3.85;;;2.25;;
31368;SDS011;18004;48.416;10.066;2023-04-23T06:19:19;3.90;;;2.70;;
31368;SDS011;18004;48.416;10.066;2023-04-23T06:21:45;2.92;;;2.50;;
31368;SDS011;18004;48.416;10.066;2023-04-23T06:24:11;4.40;;;2.30;;
31368;SDS011;18004;48.416;10.066;2023-04-23T06:26:36;5.90;;;2.35;;
31368;SDS011;18004;48.416;10.066;2023-04-23T06:29:02;2.80;;;2.05;;
31368;SDS011;18004;48.416;10.066;2023-04-23T06:31:28;4.68;;;2.67;;
31368;SDS011;18004;48.416;10.066;2023-04-23T06:33:54;2.50;;;2.15;;
31368;SDS011;18004;48.416;10.066;2023-04-23T06:36:20;4.53;;;2.60;;
31368;SDS011;18004;48.416;10.066;2023-04-23T06:38:46;2.88;;;2.42;;
31368;SDS011;18004;48.416;10.066;2023-04-23T06:41:13;4.38;;;2.67;;
31368;SDS011;18004;48.416;10.066;2023-04-23T06:43:39;4.85;;;2.47;;
31368;SDS011;18004;48.416;10.066;2023-04-23T06:46:06;4.70;;;2.30;;
31368;SDS011;18004;48.416;10.066;2023-04-23T06:48:31;2.60;;;2.33;;
31368;SDS011;18004;48.416;10.066;2023-04-23T06:50:57;4.75;;;2.72;;
31368;SDS011;18004;48.416;10.066;2023-04-23T06:53:23;4.13;;;2.67;;
31368;SDS011;18004;48.416;10.066;2023-04-23T06:55:49;3.83;;;2.88;;
31368;SDS011;18004;48.416;10.066;2023-04-23T06:58:16;4.15;;;2.50;;
31368;SDS011;18004;48.416;10.066;2023-04-23T07:00:42;4.28;;;2.47;;
31368;SDS011;18004;48.416;10.066;2023-04-23T07:03:08;2.38;;;2.17;;
31368;SDS011;18004;48.416;10.066;2023-04-23T07:05:34;3.25;;;2.58;;
31368;SDS011;18004;48.416;10.066;2023-04-23T07:08:00;3.72;;;2.47;;
31368;SDS011;18004;48.416;10.066;2023-04-23T07:10:25;3.38;;;2.33;;
31368;SDS011;18004;48.416;10.066;2023-04-23T07:12:54;6.93;;;2.42;;
31368;SDS011;18004;48.416;10.066;2023-04-23T07:15:20;2.85;;;2.22;;
31368;SDS011;18004;48.416;10.066;2023-04-23T07:17:46;9.73;;;5.05;;
31368;SDS011;18004;48.416;10.066;2023-04-23T07:20:12;8.93;;;3.90;;
31368;SDS011;18004;48.416;10.066;2023-04-23T07:22:37;4.43;;;2.97;;
31368;SDS011;18004;48.416;10.066;2023-04-23T07:25:03;4.18;;;2.47;;
31368;SDS011;18004;48.416;10.066;2023-04-23T07:27:30;3.67;;;2.20;;
31368;SDS011;18004;48.416;10.066;2023-04-23T07:29:55;2.67;;;2.47;;
31368;SDS011;18004;48.416;10.066;2023-04-23T07:32:22;6.15;;;2.60;;
31368;SDS011;18004;48.416;10.066;2023-04-23T07:34:52;3.08;;;2.33;;
31368;SDS011;18004;48.416;10.066;2023-04-23T07:37:18;3.85;;;2.83;;
31368;SDS011;18004;48.416;10.066;2023-04-23T07:39:45;4.82;;;2.58;;
31368;SDS011;18004;48.416;10.066;2023-04-23T07:42:11;3.08;;;2.17;;
31368;SDS011;18004;48.416;10.066;2023-04-23T07:44:37;3.40;;;2.58;;
31368;SDS011;18004;48.416;10.066;2023-04-23T07:47:03;2.42;;;2.05;;
31368;SDS011;18004;48.416;10.066;2023-04-23T07:49:29;5.22;;;2.55;;
31368;SDS011;18004;48.416;10.066;2023-04-23T07:51:55;3.00;;;2.10;;
31368;SDS011;18004;48.416;10.066;2023-04-23T07:54:21;3.50;;;2.67;;
31368;SDS011;18004;48.416;10.066;2023-04-23T07:56:46;4.75;;;2.38;;
31368;SDS011;18004;48.416;10.066;2023-04-23T07:59:12;2.92;;;2.08;;
31368;SDS011;18004;48.416;10.066;2023-04-23T08:01:38;4.50;;;1.98;;
31368;SDS011;18004;48.416;10.066;2023-04-23T08:04:06;3.65;;;2.00;;
31368;SDS011;18004;48.416;10.066;2023-04-23T08:06:31;2.58;;;1.80;;
31368;SDS011;18004;48.416;10.066;2023-04-23T08:08:59;3.55;;;2.03;;
31368;SDS011;18004;48.416;10.066;2023-04-23T08:11:30;2.50;;;1.88;;
31368;SDS011;18004;48.416;10.066;2023-04-23T08:13:56;1.70;;;1.40;;
31368;SDS011;18004;48.416;10.066;2023-04-23T08:16:22;3.75;;;2.17;;
31368;SDS011;18004;48.416;10.066;2023-04-23T08:18:50;6.53;;;3.35;;
31368;SDS011;18004;48.416;10.066;2023-04-23T08:21:16;1.65;;;1.55;;
31368;SDS011;18004;48.416;10.066;2023-04-23T08:23:42;2.10;;;1.75;;
31368;SDS011;18004;48.416;10.066;2023-04-23T08:26:08;2.78;;;2.13;;
31368;SDS011;18004;48.416;10.066;2023-04-23T08:28:34;2.83;;;1.48;;
31368;SDS011;18004;48.416;10.066;2023-04-23T08:31:00;4.32;;;1.17;;
31368;SDS011;18004;48.416;10.066;2023-04-23T08:33:26;1.80;;;1.60;;
31368;SDS011;18004;48.416;10.066;2023-04-23T08:35:52;1.77;;;0.95;;
31368;SDS011;18004;48.416;10.066;2023-04-23T08:38:17;1.83;;;0.98;;
31368;SDS011;18004;48.416;10.066;2023-04-23T08:40:44;1.77;;;1.00;;
31368;SDS011;18004;48.416;10.066;2023-04-23T08:43:15;1.00;;;0.80;;
31368;SDS011;18004;48.416;10.066;2023-04-23T08:48:11;0.77;;;0.70;;
31368;SDS011;18004;48.416;10.066;2023-04-23T08:50:37;0.65;;;0.32;;
31368;SDS011;18004;48.416;10.066;2023-04-23T08:53:09;0.55;;;0.40;;
31368;SDS011;18004;48.416;10.066;2023-04-23T08:55:35;1.42;;;0.60;;
31368;SDS011;18004;48.416;10.066;2023-04-23T08:58:01;1.00;;;0.55;;
31368;SDS011;18004;48.416;10.066;2023-04-23T09:00:30;1.08;;;0.40;;
31368;SDS011;18004;48.416;10.066;2023-04-23T09:02:58;0.32;;;0.32;;
31368;SDS011;18004;48.416;10.066;2023-04-23T09:05:23;0.45;;;0.30;;
31368;SDS011;18004;48.416;10.066;2023-04-23T09:07:51;0.70;;;0.40;;
31368;SDS011;18004;48.416;10.066;2023-04-23T09:10:18;0.28;;;0.28;;
31368;SDS011;18004;48.416;10.066;2023-04-23T09:12:44;0.77;;;0.68;;
31368;SDS011;18004;48.416;10.066;2023-04-23T09:15:11;1.25;;;0.65;;
31368;SDS011;18004;48.416;10.066;2023-04-23T09:17:39;0.70;;;0.70;;
31368;SDS011;18004;48.416;10.066;2023-04-23T09:20:08;0.98;;;0.80;;
31368;SDS011;18004;48.416;10.066;2023-04-23T09:22:39;0.85;;;0.80;;
31368;SDS011;18004;48.416;10.066;2023-04-23T09:25:13;0.75;;;0.65;;
31368;SDS011;18004;48.416;10.066;2023-04-23T09:27:41;0.47;;;0.47;;
31368;SDS011;18004;48.416;10.066;2023-04-23T09:30:08;0.43;;;0.43;;
31368;SDS011;18004;48.416;10.066;2023-04-23T09:32:37;1.02;;;0.35;;
31368;SDS011;18004;48.416;10.066;2023-04-23T09:35:05;0.28;;;0.28;;
31368;SDS011;18004;48.416;10.066;2023-04-23T09:37:32;0.20;;;0.20;;
31368;SDS011;18004;48.416;10.066;2023-04-23T09:39:59;0.20;;;0.20;;
31368;SDS011;18004;48.416;10.066;2023-04-23T09:42:26;0.25;;;0.20;;
31368;SDS011;18004;48.416;10.066;2023-04-23T09:44:56;0.80;;;0.40;;
31368;SDS011;18004;48.416;10.066;2023-04-23T09:47:36;1.55;;;0.52;;
31368;SDS011;18004;48.416;10.066;2023-04-23T09:50:04;0.32;;;0.30;;
31368;SDS011;18004;48.416;10.066;2023-04-23T09:52:39;0.40;;;0.40;;
31368;SDS011;18004;48.416;10.066;2023-04-23T09:55:05;0.50;;;0.38;;
31368;SDS011;18004;48.416;10.066;2023-04-23T09:57:35;0.40;;;0.30;;
31368;SDS011;18004;48.416;10.066;2023-04-23T10:00:17;0.60;;;0.60;;
31368;SDS011;18004;48.416;10.066;2023-04-23T10:02:48;3.53;;;0.57;;
31368;SDS011;18004;48.416;10.066;2023-04-23T10:05:19;1.92;;;0.60;;
31368;SDS011;18004;48.416;10.066;2023-04-23T10:07:47;0.47;;;0.40;;
31368;SDS011;18004;48.416;10.066;2023-04-23T10:10:14;0.32;;;0.30;;
31368;SDS011;18004;48.416;10.066;2023-04-23T10:12:49;0.40;;;0.40;;
31368;SDS011;18004;48.416;10.066;2023-04-23T10:16:21;0.55;;;0.17;;
31368;SDS011;18004;48.416;10.066;2023-04-23T10:18:48;0.52;;;0.40;;
31368;SDS011;18004;48.416;10.066;2023-04-23T10:21:16;0.38;;;0.32;;
31368;SDS011;18004;48.416;10.066;2023-04-23T10:23:43;0.30;;;0.30;;
31368;SDS011;18004;48.416;10.066;2023-04-23T10:26:13;2.42;;;0.38;;
31368;SDS011;18004;48.416;10.066;2023-04-23T10:28:44;0.70;;;0.40;;
31368;SDS011;18004;48.416;10.066;2023-04-23T10:35:49;0.35;;;0.35;;
31368;SDS011;18004;48.416;10.066;2023-04-23T10:38:22;0.50;;;0.35;;
31368;SDS011;18004;48.416;10.066;2023-04-23T10:46:03;0.20;;;0.20;;
31368;SDS011;18004;48.416;10.066;2023-04-23T10:53:45;0.57;;;0.32;;
31368;SDS011;18004;48.416;10.066;2023-04-23T11:03:38;1.98;;;0.32;;
31368;SDS011;18004;48.416;10.066;2023-04-23T11:10:05;0.40;;;0.30;;
31368;SDS011;18004;48.416;10.066;2023-04-23T11:21:20;0.20;;;0.20;;
31368;SDS011;18004;48.416;10.066;2023-04-23T11:28:18;0.10;;;0.10;;
31368;SDS011;18004;48.416;10.066;2023-04-23T11:30:56;0.45;;;0.20;;
31368;SDS011;18004;48.416;10.066;2023-04-23T11:33:42;0.38;;;0.30;;
31368;SDS011;18004;48.416;10.066;2023-04-23T11:36:09;0.10;;;0.10;;
31368;SDS011;18004;48.416;10.066;2023-04-23T11:38:42;0.93;;;0.30;;
31368;SDS011;18004;48.416;10.066;2023-04-23T11:48:37;1.08;;;0.30;;
31368;SDS011;18004;48.416;10.066;2023-04-23T11:53:31;0.40;;;0.30;;
31368;SDS011;18004;48.416;10.066;2023-04-23T11:56:24;0.20;;;0.20;;
31368;SDS011;18004;48.416;10.066;2023-04-23T12:03:11;0.20;;;0.20;;
31368;SDS011;18004;48.416;10.066;2023-04-23T12:20:20;3.75;;;0.22;;
31368;SDS011;18004;48.416;10.066;2023-04-23T12:23:02;0.38;;;0.30;;
31368;SDS011;18004;48.416;10.066;2023-04-23T12:51:17;0.82;;;0.38;;
31368;SDS011;18004;48.416;10.066;2023-04-23T12:53:46;0.57;;;0.40;;
31368;SDS011;18004;48.416;10.066;2023-04-23T12:56:28;1.88;;;0.20;;
31368;SDS011;18004;48.416;10.066;2023-04-23T12:59:01;0.40;;;0.30;;
31368;SDS011;18004;48.416;10.066;2023-04-23T13:24:46;0.82;;;0.43;;
31368;SDS011;18004;48.416;10.066;2023-04-23T13:28:38;1.00;;;0.43;;
31368;SDS011;18004;48.416;10.066;2023-04-23T13:35:34;0.20;;;0.20;;
31368;SDS011;18004;48.416;10.066;2023-04-23T13:42:12;0.95;;;0.30;;
31368;SDS011;18004;48.416;10.066;2023-04-23T13:52:54;1.50;;;0.50;;
31368;SDS011;18004;48.416;10.066;2023-04-23T13:55:20;0.70;;;0.40;;
31368;SDS011;18004;48.416;10.066;2023-04-23T13:57:52;0.20;;;0.20;;
31368;SDS011;18004;48.416;10.066;2023-04-23T14:04:43;0.73;;;0.30;;
31368;SDS011;18004;48.416;10.066;2023-04-23T14:18:50;0.70;;;0.32;;
31368;SDS011;18004;48.416;10.066;2023-04-23T14:22:24;1.13;;;0.43;;
31368;SDS011;18004;48.416;10.066;2023-04-23T14:40:56;0.35;;;0.35;;
31368;SDS011;18004;48.416;10.066;2023-04-23T14:44:05;0.55;;;0.50;;
31368;SDS011;18004;48.416;10.066;2023-04-23T14:47:44;1.27;;;0.50;;
31368;SDS011;18004;48.416;10.066;2023-04-23T14:51:06;1.20;;;0.43;;
31368;SDS011;18004;48.416;10.066;2023-04-23T14:58:17;0.40;;;0.40;;
31368;SDS011;18004;48.416;10.066;2023-04-23T15:01:20;0.65;;;0.30;;
31368;SDS011;18004;48.416;10.066;2023-04-23T15:11:00;0.30;;;0.30;;
31368;SDS011;18004;48.416;10.066;2023-04-23T15:14:50;1.48;;;0.30;;
31368;SDS011;18004;48.416;10.066;2023-04-23T15:17:19;4.18;;;0.75;;
31368;SDS011;18004;48.416;10.066;2023-04-23T15:19:51;2.05;;;0.50;;
31368;SDS011;18004;48.416;10.066;2023-04-23T15:22:29;0.63;;;0.47;;
31368;SDS011;18004;48.416;10.066;2023-04-23T15:28:28;0.57;;;0.40;;
31368;SDS011;18004;48.416;10.066;2023-04-23T15:30:57;0.70;;;0.50;;
31368;SDS011;18004;48.416;10.066;2023-04-23T15:33:26;1.23;;;0.40;;
31368;SDS011;18004;48.416;10.066;2023-04-23T15:35:52;0.68;;;0.50;;
31368;SDS011;18004;48.416;10.066;2023-04-23T15:38:20;3.60;;;0.60;;
31368;SDS011;18004;48.416;10.066;2023-04-23T15:40:46;2.08;;;0.50;;
31368;SDS011;18004;48.416;10.066;2023-04-23T15:43:15;1.23;;;0.40;;
31368;SDS011;18004;48.416;10.066;2023-04-23T15:46:00;2.88;;;0.60;;
31368;SDS011;18004;48.416;10.066;2023-04-23T15:49:45;0.88;;;0.60;;
31368;SDS011;18004;48.416;10.066;2023-04-23T15:52:11;0.60;;;0.40;;
31368;SDS011;18004;48.416;10.066;2023-04-23T15:54:40;2.97;;;0.90;;
31368;SDS011;18004;48.416;10.066;2023-04-23T15:57:06;0.45;;;0.40;;
31368;SDS011;18004;48.416;10.066;2023-04-23T16:07:45;1.48;;;0.50;;
31368;SDS011;18004;48.416;10.066;2023-04-23T16:14:19;0.55;;;0.38;;
31368;SDS011;18004;48.416;10.066;2023-04-23T16:20:32;1.65;;;1.10;;
31368;SDS011;18004;48.416;10.066;2023-04-23T16:23:30;1.65;;;0.73;;
31368;SDS011;18004;48.416;10.066;2023-04-23T16:57:51;0.40;;;0.40;;
31368;SDS011;18004;48.416;10.066;2023-04-23T17:02:43;0.65;;;0.40;;
31368;SDS011;18004;48.416;10.066;2023-04-23T17:09:11;4.28;;;0.60;;
31368;SDS011;18004;48.416;10.066;2023-04-23T17:11:37;1.20;;;0.77;;
31368;SDS011;18004;48.416;10.066;2023-04-23T17:14:03;0.95;;;0.50;;
31368;SDS011;18004;48.416;10.066;2023-04-23T17:16:29;0.43;;;0.43;;
31368;SDS011;18004;48.416;10.066;2023-04-23T17:18:55;0.65;;;0.60;;
31368;SDS011;18004;48.416;10.066;2023-04-23T17:21:21;0.57;;;0.35;;
31368;SDS011;18004;48.416;10.066;2023-04-23T17:23:47;4.05;;;0.85;;
31368;SDS011;18004;48.416;10.066;2023-04-23T17:26:13;0.85;;;0.65;;
31368;SDS011;18004;48.416;10.066;2023-04-23T17:28:39;0.82;;;0.47;;
31368;SDS011;18004;48.416;10.066;2023-04-23T17:31:05;0.28;;;0.28;;
31368;SDS011;18004;48.416;10.066;2023-04-23T17:33:32;1.35;;;0.40;;
31368;SDS011;18004;48.416;10.066;2023-04-23T17:35:57;0.47;;;0.40;;
31368;SDS011;18004;48.416;10.066;2023-04-23T17:38:23;0.55;;;0.55;;
31368;SDS011;18004;48.416;10.066;2023-04-23T17:40:50;1.10;;;0.57;;
31368;SDS011;18004;48.416;10.066;2023-04-23T17:43:17;2.40;;;0.60;;
31368;SDS011;18004;48.416;10.066;2023-04-23T17:45:43;0.50;;;0.50;;
31368;SDS011;18004;48.416;10.066;2023-04-23T17:48:10;2.65;;;0.30;;
31368;SDS011;18004;48.416;10.066;2023-04-23T17:50:36;0.35;;;0.30;;
31368;SDS011;18004;48.416;10.066;2023-04-23T17:53:02;0.28;;;0.28;;
31368;SDS011;18004;48.416;10.066;2023-04-23T17:55:28;0.98;;;0.30;;
31368;SDS011;18004;48.416;10.066;2023-04-23T17:57:59;1.00;;;0.30;;
31368;SDS011;18004;48.416;10.066;2023-04-23T18:00:36;0.22;;;0.20;;
31368;SDS011;18004;48.416;10.066;2023-04-23T18:03:05;0.73;;;0.45;;
31368;SDS011;18004;48.416;10.066;2023-04-23T18:05:32;2.88;;;0.90;;
31368;SDS011;18004;48.416;10.066;2023-04-23T18:07:58;0.20;;;0.20;;
31368;SDS011;18004;48.416;10.066;2023-04-23T18:10:24;0.30;;;0.30;;
31368;SDS011;18004;48.416;10.066;2023-04-23T18:12:50;0.47;;;0.20;;
31368;SDS011;18004;48.416;10.066;2023-04-23T18:15:16;0.65;;;0.40;;
31368;SDS011;18004;48.416;10.066;2023-04-23T18:17:42;0.50;;;0.50;;
31368;SDS011;18004;48.416;10.066;2023-04-23T18:20:08;0.30;;;0.30;;
31368;SDS011;18004;48.416;10.066;2023-04-23T18:22:35;0.68;;;0.40;;
31368;SDS011;18004;48.416;10.066;2023-04-23T18:25:02;0.30;;;0.30;;
31368;SDS011;18004;48.416;10.066;2023-04-23T18:27:29;4.80;;;0.40;;
31368;SDS011;18004;48.416;10.066;2023-04-23T18:29:55;0.25;;;0.20;;
31368;SDS011;18004;48.416;10.066;2023-04-23T18:32:23;0.75;;;0.30;;
31368;SDS011;18004;48.416;10.066;2023-04-23T18:34:50;0.17;;;0.15;;
31368;SDS011;18004;48.416;10.066;2023-04-23T18:40:29;0.20;;;0.20;;
31368;SDS011;18004;48.416;10.066;2023-04-23T18:42:55;0.73;;;0.40;;
31368;SDS011;18004;48.416;10.066;2023-04-23T18:45:20;0.25;;;0.25;;